sensor_id;sensor_type;location;lat;lon;timestamp;pressure;altitude;pressure_sealevel;temperature;humidity
50682;BME280;36779;52.168;20.878;2022-12-20T00:02:01;101250.40;;;-2.12;77.86
50682;BME280;36779;52.168;20.878;2022-12-20T00:04:31;101247.16;;;-2.05;77.88
50682;BME280;36779;52.168;20.878;2022-12-20T00:07:03;101244.63;;;-1.98;78.04
50682;BME280;36779;52.168;20.878;2022-12-20T00:09:32;101247.19;;;-1.93;78.11
50682;BME280;36779;52.168;20.878;2022-12-20T00:12:00;101241.25;;;-1.88;78.04
50682;BME280;36779;52.168;20.878;2022-12-20T00:14:29;101233.46;;;-1.85;78.04
50682;BME280;36779;52.168;20.878;2022-12-20T00:17:00;101230.23;;;-1.82;77.99
50682;BME280;36779;52.168;20.878;2022-12-20T00:19:29;101230.84;;;-1.81;78.13
50682;BME280;36779;52.168;20.878;2022-12-20T00:21:58;101224.30;;;-1.78;78.06
50682;BME280;36779;52.168;20.878;2022-12-20T00:24:26;101221.17;;;-1.74;78.03
50682;BME280;36779;52.168;20.878;2022-12-20T00:26:55;101224.07;;;-1.69;77.96
50682;BME280;36779;52.168;20.878;2022-12-20T00:29:26;101214.25;;;-1.63;77.99
50682;BME280;36779;52.168;20.878;2022-12-20T00:31:55;101213.84;;;-1.57;78.13
50682;BME280;36779;52.168;20.878;2022-12-20T00:34:25;101212.24;;;-1.52;78.09
50682;BME280;36779;52.168;20.878;2022-12-20T00:36:54;101212.44;;;-1.49;78.13
50682;BME280;36779;52.168;20.878;2022-12-20T00:39:23;101209.00;;;-1.46;78.11
50682;BME280;36779;52.168;20.878;2022-12-20T00:41:51;101213.45;;;-1.44;78.19
50682;BME280;36779;52.168;20.878;2022-12-20T00:44:21;101209.71;;;-1.42;78.13
50682;BME280;36779;52.168;20.878;2022-12-20T00:46:50;101212.92;;;-1.40;78.23
50682;BME280;36779;52.168;20.878;2022-12-20T00:49:21;101207.96;;;-1.37;78.21
50682;BME280;36779;52.168;20.878;2022-12-20T00:51:50;101208.80;;;-1.33;78.23
50682;BME280;36779;52.168;20.878;2022-12-20T00:54:19;101205.45;;;-1.28;78.22
50682;BME280;36779;52.168;20.878;2022-12-20T00:56:51;101193.72;;;-1.23;78.19
50682;BME280;36779;52.168;20.878;2022-12-20T00:59:21;101191.39;;;-1.18;78.26
50682;BME280;36779;52.168;20.878;2022-12-20T01:01:51;101193.55;;;-1.11;78.27
50682;BME280;36779;52.168;20.878;2022-12-20T01:04:20;101188.89;;;-1.08;78.31
50682;BME280;36779;52.168;20.878;2022-12-20T01:06:51;101184.42;;;-1.06;78.18
50682;BME280;36779;52.168;20.878;2022-12-20T01:09:20;101181.40;;;-1.05;78.29
50682;BME280;36779;52.168;20.878;2022-12-20T01:11:48;101182.21;;;-1.04;78.35
50682;BME280;36779;52.168;20.878;2022-12-20T01:14:21;101176.30;;;-1.04;78.29
50682;BME280;36779;52.168;20.878;2022-12-20T01:16:49;101174.78;;;-1.01;78.30
50682;BME280;36779;52.168;20.878;2022-12-20T01:19:21;101171.77;;;-1.00;78.22
50682;BME280;36779;52.168;20.878;2022-12-20T01:21:54;101169.16;;;-0.97;78.30
50682;BME280;36779;52.168;20.878;2022-12-20T01:24:22;101167.06;;;-0.92;78.25
50682;BME280;36779;52.168;20.878;2022-12-20T01:26:51;101167.38;;;-0.88;78.25
50682;BME280;36779;52.168;20.878;2022-12-20T01:29:20;101166.87;;;-0.84;78.27
50682;BME280;36779;52.168;20.878;2022-12-20T01:31:48;101159.19;;;-0.81;78.31
50682;BME280;36779;52.168;20.878;2022-12-20T01:34:21;101155.23;;;-0.78;78.44
50682;BME280;36779;52.168;20.878;2022-12-20T01:36:50;101148.17;;;-0.76;78.38
50682;BME280;36779;52.168;20.878;2022-12-20T01:39:25;101145.19;;;-0.76;78.41
50682;BME280;36779;52.168;20.878;2022-12-20T01:41:54;101138.59;;;-0.77;78.52
50682;BME280;36779;52.168;20.878;2022-12-20T01:44:52;101131.59;;;-0.76;78.42
50682;BME280;36779;52.168;20.878;2022-12-20T01:47:25;101127.48;;;-0.74;78.40
50682;BME280;36779;52.168;20.878;2022-12-20T01:49:58;101127.17;;;-0.71;78.39
50682;BME280;36779;52.168;20.878;2022-12-20T01:52:34;101122.98;;;-0.68;78.42
50682;BME280;36779;52.168;20.878;2022-12-20T01:55:17;101111.66;;;-0.64;78.43
50682;BME280;36779;52.168;20.878;2022-12-20T01:57:51;101110.60;;;-0.60;78.51
50682;BME280;36779;52.168;20.878;2022-12-20T02:00:22;101106.58;;;-0.57;78.50
50682;BME280;36779;52.168;20.878;2022-12-20T02:02:57;101100.21;;;-0.55;78.45
50682;BME280;36779;52.168;20.878;2022-12-20T02:05:28;101094.41;;;-0.55;78.54
50682;BME280;36779;52.168;20.878;2022-12-20T02:07:57;101089.38;;;-0.55;78.61
50682;BME280;36779;52.168;20.878;2022-12-20T02:10:34;101087.52;;;-0.56;78.57
50682;BME280;36779;52.168;20.878;2022-12-20T02:13:28;101088.58;;;-0.56;78.52
50682;BME280;36779;52.168;20.878;2022-12-20T02:15:59;101081.88;;;-0.55;78.61
50682;BME280;36779;52.168;20.878;2022-12-20T02:18:32;101085.44;;;-0.53;78.64
50682;BME280;36779;52.168;20.878;2022-12-20T02:21:15;101079.53;;;-0.50;78.69
50682;BME280;36779;52.168;20.878;2022-12-20T02:24:38;101075.52;;;-0.46;78.72
50682;BME280;36779;52.168;20.878;2022-12-20T02:27:52;101068.84;;;-0.42;78.68
50682;BME280;36779;52.168;20.878;2022-12-20T02:30:28;101065.64;;;-0.38;78.68
50682;BME280;36779;52.168;20.878;2022-12-20T02:33:01;101070.41;;;-0.35;78.75
50682;BME280;36779;52.168;20.878;2022-12-20T02:35:33;101071.42;;;-0.34;78.73
50682;BME280;36779;52.168;20.878;2022-12-20T02:38:25;101066.55;;;-0.35;78.74
50682;BME280;36779;52.168;20.878;2022-12-20T02:40:58;101067.82;;;-0.36;78.70
50682;BME280;36779;52.168;20.878;2022-12-20T02:43:31;101066.87;;;-0.38;78.83
50682;BME280;36779;52.168;20.878;2022-12-20T02:46:28;101062.35;;;-0.38;78.71
50682;BME280;36779;52.168;20.878;2022-12-20T02:49:07;101067.65;;;-0.36;78.82
50682;BME280;36779;52.168;20.878;2022-12-20T02:51:38;101071.37;;;-0.33;78.74
50682;BME280;36779;52.168;20.878;2022-12-20T02:54:07;101068.27;;;-0.30;78.78
50682;BME280;36779;52.168;20.878;2022-12-20T02:56:40;101065.02;;;-0.29;78.82
50682;BME280;36779;52.168;20.878;2022-12-20T02:59:12;101061.02;;;-0.25;78.79
50682;BME280;36779;52.168;20.878;2022-12-20T03:01:52;101054.73;;;-0.22;78.89
50682;BME280;36779;52.168;20.878;2022-12-20T03:04:28;101053.83;;;-0.17;78.90
50682;BME280;36779;52.168;20.878;2022-12-20T03:07:02;101047.09;;;-0.15;78.99
50682;BME280;36779;52.168;20.878;2022-12-20T03:09:32;101042.13;;;-0.14;78.97
50682;BME280;36779;52.168;20.878;2022-12-20T03:12:01;101035.52;;;-0.15;78.92
50682;BME280;36779;52.168;20.878;2022-12-20T03:14:31;101037.95;;;-0.15;79.04
50682;BME280;36779;52.168;20.878;2022-12-20T03:17:00;101032.16;;;-0.14;78.98
50682;BME280;36779;52.168;20.878;2022-12-20T03:19:30;101031.77;;;-0.13;78.86
50682;BME280;36779;52.168;20.878;2022-12-20T03:21:59;101028.79;;;-0.10;78.90
50682;BME280;36779;52.168;20.878;2022-12-20T03:24:31;101042.92;;;-0.06;78.96
50682;BME280;36779;52.168;20.878;2022-12-20T03:27:00;101054.65;;;-0.03;78.93
50682;BME280;36779;52.168;20.878;2022-12-20T03:29:31;101049.87;;;0.02;78.98
50682;BME280;36779;52.168;20.878;2022-12-20T03:32:01;101055.08;;;0.06;79.07
50682;BME280;36779;52.168;20.878;2022-12-20T03:34:30;101033.46;;;0.08;79.06
50682;BME280;36779;52.168;20.878;2022-12-20T03:36:58;101027.90;;;0.08;79.20
50682;BME280;36779;52.168;20.878;2022-12-20T03:39:27;101037.72;;;0.07;79.12
50682;BME280;36779;52.168;20.878;2022-12-20T03:41:56;101040.76;;;0.06;79.03
50682;BME280;36779;52.168;20.878;2022-12-20T03:44:25;101038.30;;;0.06;78.97
50682;BME280;36779;52.168;20.878;2022-12-20T03:46:54;101038.23;;;0.08;79.09
50682;BME280;36779;52.168;20.878;2022-12-20T03:49:26;101033.54;;;0.10;79.06
50682;BME280;36779;52.168;20.878;2022-12-20T03:51:55;101036.56;;;0.13;79.04
50682;BME280;36779;52.168;20.878;2022-12-20T03:54:27;101033.23;;;0.16;79.14
50682;BME280;36779;52.168;20.878;2022-12-20T03:57:24;101027.42;;;0.17;79.15
50682;BME280;36779;52.168;20.878;2022-12-20T03:59:57;101035.43;;;0.18;79.09
50682;BME280;36779;52.168;20.878;2022-12-20T04:02:26;101042.63;;;0.17;79.12
50682;BME280;36779;52.168;20.878;2022-12-20T04:04:56;101039.00;;;0.16;79.25
50682;BME280;36779;52.168;20.878;2022-12-20T04:07:31;101036.89;;;0.16;79.22
50682;BME280;36779;52.168;20.878;2022-12-20T04:10:00;101038.42;;;0.17;79.24
50682;BME280;36779;52.168;20.878;2022-12-20T04:12:31;101039.02;;;0.19;79.19
50682;BME280;36779;52.168;20.878;2022-12-20T04:14:59;101035.38;;;0.22;79.14
50682;BME280;36779;52.168;20.878;2022-12-20T04:17:31;101025.64;;;0.24;79.30
50682;BME280;36779;52.168;20.878;2022-12-20T04:20:00;101018.34;;;0.27;79.19
50682;BME280;36779;52.168;20.878;2022-12-20T04:22:51;101009.61;;;0.27;79.25
50682;BME280;36779;52.168;20.878;2022-12-20T04:25:21;101002.55;;;0.25;79.26
50682;BME280;36779;52.168;20.878;2022-12-20T04:27:51;101007.55;;;0.23;79.33
50682;BME280;36779;52.168;20.878;2022-12-20T04:30:20;101007.09;;;0.21;79.19
50682;BME280;36779;52.168;20.878;2022-12-20T04:32:53;101014.39;;;0.22;79.31
50682;BME280;36779;52.168;20.878;2022-12-20T04:35:25;101010.52;;;0.22;79.32
50682;BME280;36779;52.168;20.878;2022-12-20T04:37:55;101006.27;;;0.24;79.27
50682;BME280;36779;52.168;20.878;2022-12-20T04:40:24;101017.70;;;0.26;79.22
50682;BME280;36779;52.168;20.878;2022-12-20T04:42:57;101024.77;;;0.28;79.20
50682;BME280;36779;52.168;20.878;2022-12-20T04:45:26;101022.94;;;0.29;79.31
50682;BME280;36779;52.168;20.878;2022-12-20T04:48:00;101021.27;;;0.28;79.23
50682;BME280;36779;52.168;20.878;2022-12-20T04:50:55;101017.38;;;0.25;79.39
50682;BME280;36779;52.168;20.878;2022-12-20T04:53:24;101018.02;;;0.23;79.34
50682;BME280;36779;52.168;20.878;2022-12-20T04:56:27;101017.16;;;0.22;79.30
50682;BME280;36779;52.168;20.878;2022-12-20T04:58:59;101022.98;;;0.25;79.30
50682;BME280;36779;52.168;20.878;2022-12-20T05:01:32;101019.83;;;0.29;79.44
50682;BME280;36779;52.168;20.878;2022-12-20T05:04:03;101020.44;;;0.33;79.47
50682;BME280;36779;52.168;20.878;2022-12-20T05:06:36;101021.52;;;0.36;79.40
50682;BME280;36779;52.168;20.878;2022-12-20T05:09:05;101016.42;;;0.37;79.30
50682;BME280;36779;52.168;20.878;2022-12-20T05:11:36;101013.14;;;0.36;79.44
50682;BME280;36779;52.168;20.878;2022-12-20T05:14:10;101002.02;;;0.35;79.49
50682;BME280;36779;52.168;20.878;2022-12-20T05:16:42;100994.96;;;0.33;79.42
50682;BME280;36779;52.168;20.878;2022-12-20T05:19:12;100987.69;;;0.31;79.38
50682;BME280;36779;52.168;20.878;2022-12-20T05:21:41;100987.12;;;0.32;79.50
50682;BME280;36779;52.168;20.878;2022-12-20T05:24:31;100986.52;;;0.34;79.40
50682;BME280;36779;52.168;20.878;2022-12-20T05:27:30;100984.98;;;0.36;79.38
50682;BME280;36779;52.168;20.878;2022-12-20T05:29:59;100988.36;;;0.38;79.44
50682;BME280;36779;52.168;20.878;2022-12-20T05:32:29;100983.66;;;0.41;79.44
50682;BME280;36779;52.168;20.878;2022-12-20T05:35:01;100982.61;;;0.44;79.56
50682;BME280;36779;52.168;20.878;2022-12-20T05:37:31;100981.46;;;0.46;79.57
50682;BME280;36779;52.168;20.878;2022-12-20T05:40:08;100979.58;;;0.45;79.63
50682;BME280;36779;52.168;20.878;2022-12-20T05:42:38;100977.69;;;0.45;79.55
50682;BME280;36779;52.168;20.878;2022-12-20T05:45:11;100981.27;;;0.43;79.54
50682;BME280;36779;52.168;20.878;2022-12-20T05:47:47;100989.66;;;0.43;79.38
50682;BME280;36779;52.168;20.878;2022-12-20T05:50:20;100990.15;;;0.44;79.50
50682;BME280;36779;52.168;20.878;2022-12-20T05:53:12;100990.13;;;0.44;79.51
50682;BME280;36779;52.168;20.878;2022-12-20T05:55:51;100990.05;;;0.46;79.51
50682;BME280;36779;52.168;20.878;2022-12-20T05:58:20;100991.70;;;0.48;79.52
50682;BME280;36779;52.168;20.878;2022-12-20T06:00:55;100990.37;;;0.50;79.51
50682;BME280;36779;52.168;20.878;2022-12-20T06:03:25;100989.38;;;0.52;79.55
50682;BME280;36779;52.168;20.878;2022-12-20T06:05:58;100983.02;;;0.53;79.63
50682;BME280;36779;52.168;20.878;2022-12-20T06:08:32;100982.87;;;0.52;79.63
50682;BME280;36779;52.168;20.878;2022-12-20T06:11:10;100980.32;;;0.51;79.52
50682;BME280;36779;52.168;20.878;2022-12-20T06:13:54;100980.93;;;0.50;79.40
50682;BME280;36779;52.168;20.878;2022-12-20T06:16:27;100976.34;;;0.48;79.50
50682;BME280;36779;52.168;20.878;2022-12-20T06:18:59;100972.30;;;0.47;79.56
50682;BME280;36779;52.168;20.878;2022-12-20T06:21:32;100977.52;;;0.48;79.46
50682;BME280;36779;52.168;20.878;2022-12-20T06:24:02;100984.04;;;0.51;79.60
50682;BME280;36779;52.168;20.878;2022-12-20T06:26:32;100977.59;;;0.53;79.57
50682;BME280;36779;52.168;20.878;2022-12-20T06:29:05;100983.92;;;0.56;79.55
50682;BME280;36779;52.168;20.878;2022-12-20T06:31:44;100988.14;;;0.58;79.65
50682;BME280;36779;52.168;20.878;2022-12-20T06:34:14;100988.48;;;0.58;79.67
50682;BME280;36779;52.168;20.878;2022-12-20T06:36:43;100984.48;;;0.58;79.62
50682;BME280;36779;52.168;20.878;2022-12-20T06:39:22;100980.10;;;0.55;79.50
50682;BME280;36779;52.168;20.878;2022-12-20T06:42:03;100978.66;;;0.53;79.68
50682;BME280;36779;52.168;20.878;2022-12-20T06:44:36;100972.05;;;0.52;79.54
50682;BME280;36779;52.168;20.878;2022-12-20T06:47:05;100973.09;;;0.52;79.58
50682;BME280;36779;52.168;20.878;2022-12-20T06:49:36;100977.39;;;0.54;79.61
50682;BME280;36779;52.168;20.878;2022-12-20T06:52:12;100975.90;;;0.55;79.52
50682;BME280;36779;52.168;20.878;2022-12-20T06:54:47;100982.00;;;0.59;79.61
50682;BME280;36779;52.168;20.878;2022-12-20T06:57:16;100985.58;;;0.64;79.70
50682;BME280;36779;52.168;20.878;2022-12-20T06:59:48;100993.11;;;0.67;79.70
50682;BME280;36779;52.168;20.878;2022-12-20T07:02:20;100998.76;;;0.69;79.71
50682;BME280;36779;52.168;20.878;2022-12-20T07:04:48;101004.54;;;0.72;79.88
50682;BME280;36779;52.168;20.878;2022-12-20T07:07:20;101001.59;;;0.72;79.83
50682;BME280;36779;52.168;20.878;2022-12-20T07:09:49;101005.77;;;0.72;79.77
50682;BME280;36779;52.168;20.878;2022-12-20T07:12:21;101006.78;;;0.73;79.75
50682;BME280;36779;52.168;20.878;2022-12-20T07:14:50;101015.21;;;0.75;79.75
50682;BME280;36779;52.168;20.878;2022-12-20T07:17:20;101010.92;;;0.77;79.77
50682;BME280;36779;52.168;20.878;2022-12-20T07:19:48;101004.30;;;0.80;79.75
50682;BME280;36779;52.168;20.878;2022-12-20T07:22:23;101003.95;;;0.83;79.69
50682;BME280;36779;52.168;20.878;2022-12-20T07:24:52;101004.33;;;0.86;79.71
50682;BME280;36779;52.168;20.878;2022-12-20T07:27:21;100996.70;;;0.87;79.77
50682;BME280;36779;52.168;20.878;2022-12-20T07:29:51;100999.27;;;0.88;79.81
50682;BME280;36779;52.168;20.878;2022-12-20T07:32:20;101004.36;;;0.88;79.75
50682;BME280;36779;52.168;20.878;2022-12-20T07:34:51;101002.80;;;0.88;79.79
50682;BME280;36779;52.168;20.878;2022-12-20T07:37:20;101004.52;;;0.88;79.84
50682;BME280;36779;52.168;20.878;2022-12-20T07:39:50;101001.16;;;0.89;79.76
50682;BME280;36779;52.168;20.878;2022-12-20T07:42:20;100999.14;;;0.91;79.78
50682;BME280;36779;52.168;20.878;2022-12-20T07:44:53;100996.37;;;0.96;79.84
50682;BME280;36779;52.168;20.878;2022-12-20T07:47:22;100999.80;;;1.04;79.80
50682;BME280;36779;52.168;20.878;2022-12-20T07:49:51;100997.01;;;1.10;79.82
50682;BME280;36779;52.168;20.878;2022-12-20T07:52:32;100993.84;;;1.16;79.92
50682;BME280;36779;52.168;20.878;2022-12-20T07:55:04;100997.25;;;1.21;79.99
50682;BME280;36779;52.168;20.878;2022-12-20T07:57:39;100999.52;;;1.25;79.92
50682;BME280;36779;52.168;20.878;2022-12-20T08:00:18;100995.73;;;1.27;79.89
50682;BME280;36779;52.168;20.878;2022-12-20T08:02:53;100992.75;;;1.26;79.96
50682;BME280;36779;52.168;20.878;2022-12-20T08:05:23;100995.83;;;1.25;79.92
50682;BME280;36779;52.168;20.878;2022-12-20T08:07:53;100993.08;;;1.24;79.82
50682;BME280;36779;52.168;20.878;2022-12-20T08:10:27;101001.62;;;1.25;79.79
50682;BME280;36779;52.168;20.878;2022-12-20T08:12:57;101003.77;;;1.27;79.77
50682;BME280;36779;52.168;20.878;2022-12-20T08:15:29;101002.21;;;1.29;79.71
50682;BME280;36779;52.168;20.878;2022-12-20T08:17:57;101003.61;;;1.33;79.75
50682;BME280;36779;52.168;20.878;2022-12-20T08:20:32;101006.02;;;1.36;79.77
50682;BME280;36779;52.168;20.878;2022-12-20T08:23:03;101006.42;;;1.41;79.88
50682;BME280;36779;52.168;20.878;2022-12-20T08:25:33;101003.73;;;1.43;79.78
50682;BME280;36779;52.168;20.878;2022-12-20T08:28:14;101002.00;;;1.42;79.89
50682;BME280;36779;52.168;20.878;2022-12-20T08:30:46;100995.75;;;1.41;79.81
50682;BME280;36779;52.168;20.878;2022-12-20T08:33:15;100992.33;;;1.40;79.85
50682;BME280;36779;52.168;20.878;2022-12-20T08:35:57;100989.89;;;1.40;79.91
50682;BME280;36779;52.168;20.878;2022-12-20T08:38:26;100988.65;;;1.40;79.71
50682;BME280;36779;52.168;20.878;2022-12-20T08:41:00;100987.86;;;1.42;79.69
50682;BME280;36779;52.168;20.878;2022-12-20T08:43:29;100984.20;;;1.44;79.78
50682;BME280;36779;52.168;20.878;2022-12-20T08:45:58;100982.66;;;1.50;79.77
50682;BME280;36779;52.168;20.878;2022-12-20T08:48:27;100976.65;;;1.56;79.77
50682;BME280;36779;52.168;20.878;2022-12-20T08:50:57;100974.60;;;1.61;79.93
50682;BME280;36779;52.168;20.878;2022-12-20T08:53:28;100975.89;;;1.66;79.97
50682;BME280;36779;52.168;20.878;2022-12-20T08:56:04;100977.66;;;1.72;80.08
50682;BME280;36779;52.168;20.878;2022-12-20T08:58:35;100976.09;;;1.75;80.04
50682;BME280;36779;52.168;20.878;2022-12-20T09:01:05;100971.83;;;1.76;79.88
50682;BME280;36779;52.168;20.878;2022-12-20T09:03:36;100976.35;;;1.77;79.79
50682;BME280;36779;52.168;20.878;2022-12-20T09:06:08;100981.55;;;1.78;79.79
50682;BME280;36779;52.168;20.878;2022-12-20T09:08:39;100982.14;;;1.79;79.71
50682;BME280;36779;52.168;20.878;2022-12-20T09:11:10;100975.23;;;1.83;79.66
50682;BME280;36779;52.168;20.878;2022-12-20T09:13:40;100973.39;;;1.87;79.80
50682;BME280;36779;52.168;20.878;2022-12-20T09:16:13;100976.19;;;1.91;79.83
50682;BME280;36779;52.168;20.878;2022-12-20T09:18:43;100971.88;;;1.95;79.91
50682;BME280;36779;52.168;20.878;2022-12-20T09:21:16;100976.75;;;2.02;79.94
50682;BME280;36779;52.168;20.878;2022-12-20T09:23:50;100968.77;;;2.06;79.93
50682;BME280;36779;52.168;20.878;2022-12-20T09:26:27;100961.41;;;2.12;80.00
50682;BME280;36779;52.168;20.878;2022-12-20T09:28:58;100961.88;;;2.19;79.94
50682;BME280;36779;52.168;20.878;2022-12-20T09:31:26;100967.71;;;2.29;79.99
50682;BME280;36779;52.168;20.878;2022-12-20T09:33:57;100967.90;;;2.38;80.00
50682;BME280;36779;52.168;20.878;2022-12-20T09:36:26;100959.10;;;2.46;79.94
50682;BME280;36779;52.168;20.878;2022-12-20T09:38:56;100956.91;;;2.56;79.98
50682;BME280;36779;52.168;20.878;2022-12-20T09:41:37;100959.66;;;2.66;79.87
50682;BME280;36779;52.168;20.878;2022-12-20T09:44:16;100955.99;;;2.73;79.92
50682;BME280;36779;52.168;20.878;2022-12-20T09:46:50;100955.78;;;2.76;79.88
50682;BME280;36779;52.168;20.878;2022-12-20T09:49:30;100956.80;;;2.80;79.77
50682;BME280;36779;52.168;20.878;2022-12-20T09:52:33;100957.84;;;2.86;79.84
50682;BME280;36779;52.168;20.878;2022-12-20T09:55:16;100958.21;;;2.91;79.76
50682;BME280;36779;52.168;20.878;2022-12-20T09:58:03;100962.45;;;2.98;79.99
50682;BME280;36779;52.168;20.878;2022-12-20T10:00:45;100969.48;;;3.07;79.84
50682;BME280;36779;52.168;20.878;2022-12-20T10:03:27;100970.91;;;3.06;79.65
50682;BME280;36779;52.168;20.878;2022-12-20T10:06:07;100971.20;;;3.04;79.54
50682;BME280;36779;52.168;20.878;2022-12-20T10:08:53;100964.59;;;3.03;79.67
50682;BME280;36779;52.168;20.878;2022-12-20T10:11:36;100967.23;;;3.03;79.54
50682;BME280;36779;52.168;20.878;2022-12-20T10:14:36;100968.71;;;3.08;79.58
50682;BME280;36779;52.168;20.878;2022-12-20T10:17:21;100968.06;;;3.12;79.50
50682;BME280;36779;52.168;20.878;2022-12-20T10:20:11;100962.25;;;3.15;79.64
50682;BME280;36779;52.168;20.878;2022-12-20T10:22:49;100964.10;;;3.19;79.77
50682;BME280;36779;52.168;20.878;2022-12-20T10:25:22;100964.35;;;3.21;79.57
50682;BME280;36779;52.168;20.878;2022-12-20T10:27:53;100967.84;;;3.21;79.51
50682;BME280;36779;52.168;20.878;2022-12-20T10:30:26;100970.13;;;3.21;79.52
50682;BME280;36779;52.168;20.878;2022-12-20T10:32:57;100966.48;;;3.25;79.75
50682;BME280;36779;52.168;20.878;2022-12-20T10:35:33;100962.96;;;3.28;79.61
50682;BME280;36779;52.168;20.878;2022-12-20T10:38:08;100961.77;;;3.28;79.54
50682;BME280;36779;52.168;20.878;2022-12-20T10:40:45;100962.17;;;3.32;79.66
50682;BME280;36779;52.168;20.878;2022-12-20T10:43:41;100954.98;;;3.43;79.63
50682;BME280;36779;52.168;20.878;2022-12-20T10:46:12;100949.77;;;3.57;79.85
50682;BME280;36779;52.168;20.878;2022-12-20T10:48:48;100947.50;;;3.80;80.00
50682;BME280;36779;52.168;20.878;2022-12-20T10:51:24;100943.97;;;4.01;80.00
50682;BME280;36779;52.168;20.878;2022-12-20T10:53:56;100938.73;;;4.23;80.05
50682;BME280;36779;52.168;20.878;2022-12-20T10:56:32;100939.47;;;4.38;79.69
50682;BME280;36779;52.168;20.878;2022-12-20T10:59:26;100931.14;;;4.41;79.47
50682;BME280;36779;52.168;20.878;2022-12-20T11:02:01;100923.36;;;4.37;79.23
50682;BME280;36779;52.168;20.878;2022-12-20T11:04:34;100919.89;;;4.28;78.99
50682;BME280;36779;52.168;20.878;2022-12-20T11:07:23;100916.73;;;4.16;78.97
50682;BME280;36779;52.168;20.878;2022-12-20T11:10:02;100907.27;;;4.06;79.05
50682;BME280;36779;52.168;20.878;2022-12-20T11:12:33;100904.88;;;3.99;79.04
50682;BME280;36779;52.168;20.878;2022-12-20T11:15:21;100894.36;;;3.86;78.84
50682;BME280;36779;52.168;20.878;2022-12-20T11:18:07;100884.14;;;3.71;78.95
50682;BME280;36779;52.168;20.878;2022-12-20T11:20:46;100876.29;;;3.63;78.99
50682;BME280;36779;52.168;20.878;2022-12-20T11:23:25;100870.52;;;3.52;78.75
50682;BME280;36779;52.168;20.878;2022-12-20T11:26:10;100865.61;;;3.42;78.92
50682;BME280;36779;52.168;20.878;2022-12-20T11:29:21;100864.92;;;3.28;78.81
50682;BME280;36779;52.168;20.878;2022-12-20T11:32:02;100873.48;;;3.16;78.87
50682;BME280;36779;52.168;20.878;2022-12-20T11:34:42;100875.11;;;3.08;78.78
50682;BME280;36779;52.168;20.878;2022-12-20T11:37:20;100879.84;;;3.02;78.78
50682;BME280;36779;52.168;20.878;2022-12-20T11:40:09;100880.48;;;3.01;78.87
50682;BME280;36779;52.168;20.878;2022-12-20T11:42:53;100880.71;;;3.00;78.85
50682;BME280;36779;52.168;20.878;2022-12-20T11:45:34;100875.88;;;2.96;78.86
50682;BME280;36779;52.168;20.878;2022-12-20T11:48:31;100868.24;;;2.92;78.86
50682;BME280;36779;52.168;20.878;2022-12-20T11:51:12;100865.36;;;2.88;78.93
50682;BME280;36779;52.168;20.878;2022-12-20T11:53:57;100864.25;;;2.83;79.05
50682;BME280;36779;52.168;20.878;2022-12-20T11:56:40;100860.34;;;2.81;78.97
50682;BME280;36779;52.168;20.878;2022-12-20T11:59:21;100858.18;;;2.82;79.01
50682;BME280;36779;52.168;20.878;2022-12-20T12:02:03;100860.27;;;2.85;79.17
50682;BME280;36779;52.168;20.878;2022-12-20T12:04:36;100856.20;;;2.91;79.25
50682;BME280;36779;52.168;20.878;2022-12-20T12:07:14;100859.07;;;3.03;79.35
50682;BME280;36779;52.168;20.878;2022-12-20T12:09:59;100858.45;;;3.25;79.64
50682;BME280;36779;52.168;20.878;2022-12-20T12:12:35;100865.42;;;3.47;79.67
50682;BME280;36779;52.168;20.878;2022-12-20T12:15:22;100864.13;;;3.61;79.66
50682;BME280;36779;52.168;20.878;2022-12-20T12:17:59;100859.48;;;3.70;79.63
50682;BME280;36779;52.168;20.878;2022-12-20T12:20:35;100862.27;;;3.75;79.49
50682;BME280;36779;52.168;20.878;2022-12-20T12:23:20;100859.95;;;3.75;79.30
50682;BME280;36779;52.168;20.878;2022-12-20T12:25:52;100858.20;;;3.75;79.22
50682;BME280;36779;52.168;20.878;2022-12-20T12:28:24;100854.10;;;3.71;78.95
50682;BME280;36779;52.168;20.878;2022-12-20T12:30:56;100853.15;;;3.65;78.96
50682;BME280;36779;52.168;20.878;2022-12-20T12:33:30;100854.70;;;3.55;78.89
50682;BME280;36779;52.168;20.878;2022-12-20T12:36:31;100860.07;;;3.45;78.80
50682;BME280;36779;52.168;20.878;2022-12-20T12:39:42;100861.30;;;3.38;78.77
50682;BME280;36779;52.168;20.878;2022-12-20T12:42:40;100861.33;;;3.30;78.72
50682;BME280;36779;52.168;20.878;2022-12-20T12:45:18;100862.11;;;3.23;78.72
50682;BME280;36779;52.168;20.878;2022-12-20T12:47:53;100862.77;;;3.19;78.63
50682;BME280;36779;52.168;20.878;2022-12-20T12:50:32;100857.89;;;3.18;78.73
50682;BME280;36779;52.168;20.878;2022-12-20T12:53:18;100855.73;;;3.19;78.72
50682;BME280;36779;52.168;20.878;2022-12-20T12:55:51;100851.77;;;3.15;78.66
50682;BME280;36779;52.168;20.878;2022-12-20T12:58:42;100853.95;;;3.12;78.69
50682;BME280;36779;52.168;20.878;2022-12-20T13:01:48;100859.33;;;3.07;78.62
50682;BME280;36779;52.168;20.878;2022-12-20T13:04:27;100856.95;;;3.01;78.70
50682;BME280;36779;52.168;20.878;2022-12-20T13:07:29;100855.31;;;2.94;78.65
50682;BME280;36779;52.168;20.878;2022-12-20T13:13:22;100860.77;;;2.80;78.61
50682;BME280;36779;52.168;20.878;2022-12-20T13:16:08;100859.18;;;2.75;78.59
50682;BME280;36779;52.168;20.878;2022-12-20T13:19:10;100861.52;;;2.71;78.57
50682;BME280;36779;52.168;20.878;2022-12-20T13:21:43;100860.55;;;2.70;78.57
50682;BME280;36779;52.168;20.878;2022-12-20T13:27:36;100871.47;;;2.75;78.53
50682;BME280;36779;52.168;20.878;2022-12-20T13:30:24;100875.14;;;2.78;78.54
50682;BME280;36779;52.168;20.878;2022-12-20T13:33:24;100871.09;;;2.78;78.59
50682;BME280;36779;52.168;20.878;2022-12-20T13:36:30;100870.01;;;2.78;78.62
50682;BME280;36779;52.168;20.878;2022-12-20T13:42:05;100875.63;;;2.76;78.69